Time;durP1;ratioP1;P1;durP2;ratioP2;P2;SDS_P1;SDS_P2;PMS_P1;PMS_P2;Temp;Humidity;BMP_temperature;BMP_pressure;BME280_temperature;BME280_humidity;BME280_pressure;Samples;Min_cycle;Max_cycle;Signal;HPM_P1;HPM_P2
2022/12/11 00:00:21;;;;;;;12.40;6.87;;;-1.20;99.90;;;;;;5012081;28;20297;-68
2022/12/11 00:02:46;;;;;;;10.93;6.87;;;-1.10;99.90;;;;;;5025482;28;20519;-68
2022/12/11 00:05:12;;;;;;;9.90;7.50;;;-1.10;99.90;;;;;;5016601;28;20551;-68
2022/12/11 00:07:38;;;;;;;13.60;7.20;;;-1.20;99.90;;;;;;5032495;28;20211;-68
2022/12/11 00:10:04;;;;;;;10.30;6.70;;;-1.20;99.90;;;;;;5026581;28;20414;-67
2022/12/11 00:12:30;;;;;;;11.47;7.53;;;-1.20;99.90;;;;;;5031717;28;20542;-68
2022/12/11 00:14:56;;;;;;;9.70;7.33;;;-1.10;99.90;;;;;;5023145;28;20419;-67
2022/12/11 00:17:21;;;;;;;9.17;7.63;;;-1.10;99.90;;;;;;5028986;28;20446;-67
2022/12/11 00:19:47;;;;;;;17.07;7.97;;;-1.10;99.90;;;;;;5024376;28;20179;-67
2022/12/11 00:22:13;;;;;;;12.97;7.97;;;-1.10;99.90;;;;;;5028676;28;20539;-67
2022/12/11 00:24:38;;;;;;;8.40;6.40;;;-1.00;99.90;;;;;;5014090;28;20194;-67
2022/12/11 00:27:04;;;;;;;16.60;7.10;;;-1.00;99.90;;;;;;5030849;28;20191;-67
2022/12/11 00:29:29;;;;;;;19.70;7.90;;;-1.00;99.90;;;;;;5007258;28;20241;-68
2022/12/11 00:31:55;;;;;;;12.33;8.47;;;-1.00;99.90;;;;;;5013625;28;20188;-67
2022/12/11 00:34:21;;;;;;;13.97;10.90;;;-1.00;99.90;;;;;;5008517;28;20579;-67
2022/12/11 00:36:46;;;;;;;14.17;8.17;;;-1.00;99.90;;;;;;5029006;28;20191;-68
2022/12/11 00:39:12;;;;;;;12.63;9.23;;;-0.90;99.90;;;;;;5031554;28;20199;-67
2022/12/11 00:41:37;;;;;;;13.13;8.13;;;-1.00;99.90;;;;;;5025021;28;20177;-68
2022/12/11 00:44:03;;;;;;;11.83;6.87;;;-1.00;99.90;;;;;;5034298;28;20643;-69
2022/12/11 00:46:29;;;;;;;15.00;7.70;;;-1.00;99.90;;;;;;5019619;28;20218;-67
2022/12/11 00:48:55;;;;;;;10.63;6.80;;;-1.00;99.90;;;;;;5039370;28;20512;-68
2022/12/11 00:51:21;;;;;;;17.10;8.27;;;-1.00;99.90;;;;;;5050920;28;20179;-68
2022/12/11 00:53:46;;;;;;;12.70;8.87;;;-0.90;99.90;;;;;;5022373;28;20184;-66
2022/12/11 00:56:18;;;;;;;8.30;7.37;;;-1.00;99.90;;;;;;4999471;28;20196;-67
2022/12/11 00:58:45;;;;;;;17.67;7.87;;;-0.90;99.90;;;;;;5034603;28;20195;-67
2022/12/11 01:01:14;;;;;;;10.97;7.00;;;-1.00;99.90;;;;;;5033118;28;20419;-69
2022/12/11 01:03:40;;;;;;;12.37;7.53;;;-0.90;99.90;;;;;;5023472;28;20459;-67
2022/12/11 01:06:06;;;;;;;8.63;7.73;;;-1.00;99.90;;;;;;5030431;28;20486;-69
2022/12/11 01:08:32;;;;;;;14.77;9.13;;;-1.00;99.90;;;;;;5013178;28;20199;-67
2022/12/11 01:11:03;;;;;;;12.47;8.40;;;-1.00;99.90;;;;;;5034656;28;20414;-67
2022/12/11 01:13:29;;;;;;;12.00;6.77;;;-1.10;99.90;;;;;;5027136;28;20188;-68
2022/12/11 01:15:55;;;;;;;13.67;7.80;;;-1.10;99.90;;;;;;5025885;28;20741;-68
2022/12/11 01:18:21;;;;;;;11.77;7.57;;;-1.00;99.90;;;;;;5039435;28;20537;-68
2022/12/11 01:20:46;;;;;;;13.30;7.20;;;-1.00;99.90;;;;;;5037665;28;20622;-68
2022/12/11 01:23:12;;;;;;;11.10;7.90;;;-1.00;99.90;;;;;;5037388;28;20171;-69
2022/12/11 01:25:39;;;;;;;9.77;7.63;;;-1.00;99.90;;;;;;5046907;28;20178;-69
2022/12/11 01:28:05;;;;;;;13.00;8.67;;;-1.00;99.90;;;;;;5030728;28;20432;-68
2022/12/11 01:30:31;;;;;;;10.90;6.93;;;-0.90;99.90;;;;;;5042024;28;20426;-68
2022/12/11 01:32:57;;;;;;;9.23;7.07;;;-1.10;99.90;;;;;;5030551;28;20924;-68
2022/12/11 01:35:22;;;;;;;13.27;8.70;;;-1.10;99.90;;;;;;5032771;28;20472;-68
2022/12/11 01:37:48;;;;;;;11.30;7.90;;;-1.10;99.90;;;;;;5026999;28;20283;-69
2022/12/11 01:40:16;;;;;;;11.40;7.87;;;-1.10;99.90;;;;;;5028208;28;20168;-67
2022/12/11 01:42:42;;;;;;;11.17;8.80;;;-1.10;99.90;;;;;;5031778;28;20424;-67
2022/12/11 01:45:47;;;;;;;14.57;8.60;;;-1.10;99.90;;;;;;5034234;28;20461;-67
2022/12/11 01:48:21;;;;;;;12.20;8.30;;;-1.10;99.90;;;;;;4973716;28;21178;-68
2022/12/11 01:50:52;;;;;;;13.20;8.80;;;-1.00;99.90;;;;;;4974264;28;20423;-67
2022/12/11 01:53:39;;;;;;;15.33;9.73;;;-1.00;99.90;;;;;;5005441;28;20426;-68
2022/12/11 01:56:07;;;;;;;14.07;8.60;;;-0.90;99.90;;;;;;5032439;28;20441;-68
2022/12/11 01:58:39;;;;;;;14.20;8.10;;;-0.90;99.90;;;;;;5029721;28;20536;-68
2022/12/11 02:01:04;;;;;;;15.73;9.40;;;-0.90;99.90;;;;;;5028491;28;20945;-68
2022/12/11 02:03:30;;;;;;;12.17;7.03;;;-0.90;99.90;;;;;;5016583;28;20405;-67
2022/12/11 02:06:00;;;;;;;15.60;10.17;;;-1.00;99.90;;;;;;5046381;28;20450;-72
2022/12/11 02:08:26;;;;;;;14.97;8.80;;;-1.00;99.90;;;;;;5035313;28;20782;-68
2022/12/11 02:11:19;;;;;;;13.90;7.33;;;-0.90;99.90;;;;;;5037405;28;20421;-68
2022/12/11 02:14:18;;;;;;;13.40;6.97;;;-1.00;99.90;;;;;;5034828;28;20167;-67
2022/12/11 02:16:54;;;;;;;13.30;7.40;;;-1.00;99.90;;;;;;5028672;28;20438;-67
2022/12/11 02:20:02;;;;;;;17.93;7.20;;;-1.00;99.90;;;;;;5028889;28;21034;-68
2022/12/11 02:22:47;;;;;;;16.03;7.77;;;-1.00;99.90;;;;;;5033951;28;20447;-68
2022/12/11 02:26:03;;;;;;;17.13;10.60;;;-0.90;99.90;;;;;;5052427;28;20417;-68
2022/12/11 02:28:54;;;;;;;14.77;8.83;;;-1.00;99.90;;;;;;5005659;28;20431;-68
2022/12/11 02:31:37;;;;;;;15.00;7.43;;;-1.00;99.90;;;;;;5023748;28;20427;-68
2022/12/11 02:34:16;;;;;;;10.83;8.20;;;-1.10;99.90;;;;;;5016608;28;20443;-68
2022/12/11 02:36:50;;;;;;;12.67;7.20;;;-1.10;99.90;;;;;;5029301;28;20450;-68
2022/12/11 02:39:16;;;;;;;18.57;10.03;;;-1.00;99.90;;;;;;5031629;28;20457;-68
2022/12/11 02:41:47;;;;;;;15.67;9.70;;;-1.10;99.90;;;;;;5034092;28;20422;-68
2022/12/11 02:44:16;;;;;;;15.90;8.83;;;-1.10;99.90;;;;;;5033462;28;20970;-68
2022/12/11 02:46:44;;;;;;;18.17;10.70;;;-1.20;99.90;;;;;;5037366;28;20927;-68
2022/12/11 02:49:12;;;;;;;15.73;9.17;;;-1.10;99.90;;;;;;5021783;28;20441;-68
2022/12/11 02:51:41;;;;;;;18.53;10.07;;;-1.00;99.90;;;;;;5032985;28;20418;-67
2022/12/11 02:54:16;;;;;;;14.07;8.03;;;-1.10;99.90;;;;;;5016153;28;20411;-68
2022/12/11 02:56:50;;;;;;;20.47;9.37;;;-1.10;99.90;;;;;;5039881;28;20455;-68
2022/12/11 02:59:22;;;;;;;16.17;8.97;;;-1.00;99.90;;;;;;5040695;28;20548;-68
2022/12/11 03:01:48;;;;;;;12.13;7.43;;;-1.00;99.90;;;;;;5028732;28;20426;-68
2022/12/11 03:04:14;;;;;;;11.80;8.33;;;-0.90;99.90;;;;;;5032013;28;20423;-68
2022/12/11 03:06:45;;;;;;;15.07;7.97;;;-0.90;99.90;;;;;;5037750;28;20515;-68
2022/12/11 03:09:11;;;;;;;10.40;8.13;;;-0.80;99.90;;;;;;5026934;28;20423;-68
2022/12/11 03:11:37;;;;;;;18.37;8.80;;;-0.90;99.90;;;;;;5034523;28;20933;-68
2022/12/11 03:14:03;;;;;;;17.07;10.77;;;-0.80;99.90;;;;;;5029303;28;20417;-68
2022/12/11 03:16:35;;;;;;;13.20;8.70;;;-0.80;99.90;;;;;;5042419;28;20192;-68
2022/12/11 03:19:06;;;;;;;9.40;7.77;;;-0.80;99.90;;;;;;5021959;28;20812;-68
2022/12/11 03:21:51;;;;;;;13.10;9.27;;;-0.80;99.90;;;;;;5030025;28;20515;-66
2022/12/11 03:24:32;;;;;;;15.03;7.97;;;-0.90;99.90;;;;;;5026347;28;20779;-67
2022/12/11 03:27:11;;;;;;;13.60;8.90;;;-0.90;99.90;;;;;;5030502;28;20469;-67
2022/12/11 03:29:43;;;;;;;15.67;7.77;;;-0.90;99.90;;;;;;5037457;28;20829;-67
2022/12/11 03:32:18;;;;;;;11.73;8.40;;;-0.90;99.90;;;;;;5018522;28;20415;-68
2022/12/11 03:34:58;;;;;;;13.90;7.83;;;-0.90;99.90;;;;;;5047130;28;20842;-67
2022/12/11 03:37:27;;;;;;;16.60;8.70;;;-0.90;99.90;;;;;;5018571;28;20453;-68
2022/12/11 03:39:58;;;;;;;21.53;9.43;;;-0.80;99.90;;;;;;5033281;28;20422;-63
2022/12/11 03:42:25;;;;;;;16.27;7.97;;;-0.80;99.90;;;;;;5011574;28;21003;-67
2022/12/11 03:44:55;;;;;;;12.40;7.00;;;-0.90;99.90;;;;;;5024322;28;20410;-68
2022/12/11 03:47:24;;;;;;;12.67;7.77;;;-0.90;99.90;;;;;;5019218;28;20529;-67
2022/12/11 03:49:52;;;;;;;12.87;8.20;;;-0.90;99.90;;;;;;5040910;28;20470;-67
2022/12/11 03:52:19;;;;;;;14.47;9.03;;;-0.90;99.90;;;;;;5034599;28;20407;-68
2022/12/11 03:54:48;;;;;;;15.77;7.73;;;-0.90;99.90;;;;;;5050172;28;20900;-68
2022/12/11 03:57:19;;;;;;;10.33;8.33;;;-0.90;99.90;;;;;;5009563;28;20442;-67
2022/12/11 03:59:45;;;;;;;15.43;8.27;;;-0.90;99.90;;;;;;5034028;28;20401;-67
2022/12/11 04:02:11;;;;;;;14.80;9.07;;;-1.00;99.90;;;;;;5022759;28;20449;-67
2022/12/11 04:04:37;;;;;;;16.50;9.77;;;-1.00;99.90;;;;;;5031599;28;20974;-67
2022/12/11 04:07:03;;;;;;;10.90;7.90;;;-1.00;99.90;;;;;;5027207;28;20297;-69
2022/12/11 04:09:28;;;;;;;16.10;9.50;;;-1.10;99.90;;;;;;5045337;28;20422;-67
2022/12/11 04:11:54;;;;;;;12.60;8.23;;;-1.10;99.90;;;;;;5042159;28;20181;-67
2022/12/11 04:17:04;;;;;;;15.00;8.60;;;-1.20;99.90;;;;;;5024474;28;20563;-68
2022/12/11 04:25:01;;;;;;;15.80;8.60;;;-1.20;99.90;;;;;;5036868;28;20417;-67
2022/12/11 04:30:18;;;;;;;12.07;8.40;;;-1.20;99.90;;;;;;5029739;28;20458;-67
2022/12/11 04:32:44;;;;;;;11.50;8.30;;;-1.10;99.90;;;;;;5032954;28;20413;-69
2022/12/11 04:35:11;;;;;;;12.60;8.57;;;-1.10;99.90;;;;;;5030055;28;20403;-69
2022/12/11 04:37:37;;;;;;;17.70;9.73;;;-1.20;99.90;;;;;;5044748;28;20199;-68
2022/12/11 04:40:05;;;;;;;12.93;7.23;;;-1.20;99.90;;;;;;5043991;28;20414;-68
2022/12/11 04:42:31;;;;;;;16.30;8.17;;;-1.30;99.90;;;;;;5032794;28;20506;-68
2022/12/11 04:44:56;;;;;;;18.23;8.13;;;-1.30;99.90;;;;;;5015440;28;20510;-67
2022/12/11 04:47:22;;;;;;;9.33;7.60;;;-1.20;99.90;;;;;;5039115;28;20641;-67
2022/12/11 04:49:48;;;;;;;10.83;8.43;;;-1.20;99.90;;;;;;5027121;28;20171;-67
2022/12/11 04:52:13;;;;;;;14.53;8.93;;;-1.20;99.90;;;;;;5042700;28;20178;-67
2022/12/11 04:54:39;;;;;;;10.40;8.57;;;-1.20;99.90;;;;;;5015340;28;20175;-67
2022/12/11 04:57:05;;;;;;;13.27;8.33;;;-1.20;99.90;;;;;;5033491;28;20696;-67
2022/12/11 04:59:32;;;;;;;15.40;8.67;;;-1.30;99.90;;;;;;5037614;28;20198;-68
2022/12/11 05:01:57;;;;;;;13.80;7.87;;;-1.30;99.90;;;;;;5010868;28;20167;-68
2022/12/11 05:04:23;;;;;;;14.60;8.30;;;-1.20;99.90;;;;;;5034390;28;20924;-68
2022/12/11 05:06:49;;;;;;;15.23;8.43;;;-1.20;99.90;;;;;;5031559;28;20207;-68
2022/12/11 05:09:15;;;;;;;13.53;7.77;;;-1.30;99.90;;;;;;5046129;28;20214;-68
2022/12/11 05:11:41;;;;;;;16.10;7.77;;;-1.30;99.90;;;;;;5036016;28;20402;-68
2022/12/11 05:14:07;;;;;;;16.77;9.10;;;-1.20;99.90;;;;;;5033279;28;20513;-68
2022/12/11 05:16:32;;;;;;;16.10;10.00;;;-1.20;99.90;;;;;;5034425;28;20692;-68
2022/12/11 05:18:58;;;;;;;17.33;9.40;;;-1.20;99.90;;;;;;5038407;28;20220;-68
2022/12/11 05:21:24;;;;;;;18.80;8.07;;;-1.20;99.90;;;;;;5028047;28;20204;-68
2022/12/11 05:23:49;;;;;;;15.90;8.40;;;-1.20;99.90;;;;;;5029890;28;20661;-68
2022/12/11 05:26:18;;;;;;;14.13;8.57;;;-1.20;99.90;;;;;;5011380;28;20200;-68
2022/12/11 05:28:44;;;;;;;10.17;8.17;;;-1.20;99.90;;;;;;5031023;28;20636;-68
2022/12/11 05:31:16;;;;;;;16.87;10.97;;;-1.20;99.90;;;;;;5036326;28;20492;-68
2022/12/11 05:33:44;;;;;;;19.90;9.80;;;-1.30;99.90;;;;;;5038348;28;20446;-68
2022/12/11 05:36:30;;;;;;;20.83;9.17;;;-1.30;99.90;;;;;;5042191;28;20962;-68
2022/12/11 05:38:57;;;;;;;15.70;11.13;;;-1.30;99.90;;;;;;5034401;28;20881;-68
2022/12/11 05:41:25;;;;;;;18.37;11.37;;;-1.30;99.90;;;;;;5041848;28;20495;-69
2022/12/11 05:43:51;;;;;;;18.57;10.60;;;-1.20;99.90;;;;;;5049178;28;20470;-68
2022/12/11 05:46:20;;;;;;;14.03;8.53;;;-1.20;99.90;;;;;;5038135;28;21265;-67
2022/12/11 05:48:47;;;;;;;23.10;10.37;;;-1.20;99.90;;;;;;5050348;28;20229;-67
2022/12/11 05:51:15;;;;;;;14.13;10.53;;;-1.20;99.90;;;;;;5019242;28;20556;-67
2022/12/11 05:53:42;;;;;;;15.47;9.47;;;-1.30;99.90;;;;;;5031406;28;20446;-67
2022/12/11 05:56:11;;;;;;;18.40;10.67;;;-1.40;99.90;;;;;;5034764;28;20520;-67
2022/12/11 05:58:37;;;;;;;17.50;10.50;;;-1.30;99.90;;;;;;5042973;28;20552;-67
2022/12/11 06:01:10;;;;;;;15.90;9.20;;;-1.30;99.90;;;;;;5037685;28;20868;-66
2022/12/11 06:03:37;;;;;;;12.03;9.67;;;-1.20;99.90;;;;;;5045856;28;20406;-68
2022/12/11 06:06:04;;;;;;;16.77;10.47;;;-1.30;99.90;;;;;;5030877;28;20481;-67
2022/12/11 06:08:30;;;;;;;13.00;9.57;;;-1.30;99.90;;;;;;5031959;28;20414;-67
2022/12/11 06:10:56;;;;;;;12.73;7.93;;;-1.30;99.90;;;;;;5034385;28;20422;-67
2022/12/11 06:13:22;;;;;;;17.97;9.97;;;-1.20;99.90;;;;;;5035517;28;20406;-68
2022/12/11 06:15:48;;;;;;;19.00;8.40;;;-1.20;99.90;;;;;;5045168;28;20496;-67
2022/12/11 06:18:14;;;;;;;11.23;7.30;;;-1.30;99.90;;;;;;5035839;28;20552;-68
2022/12/11 06:20:39;;;;;;;10.80;6.70;;;-1.30;99.90;;;;;;5033006;28;20556;-68
2022/12/11 06:23:05;;;;;;;11.40;7.77;;;-1.30;99.90;;;;;;5032998;28;20172;-68
2022/12/11 06:25:31;;;;;;;18.70;7.70;;;-1.40;99.90;;;;;;5045568;28;20261;-68
2022/12/11 06:27:57;;;;;;;21.87;9.50;;;-1.30;99.90;;;;;;5023794;28;20199;-68
2022/12/11 06:30:22;;;;;;;19.17;8.97;;;-1.30;99.90;;;;;;5029373;28;20175;-69
2022/12/11 06:32:48;;;;;;;13.87;8.80;;;-1.30;99.90;;;;;;5048925;28;20180;-68
2022/12/11 06:35:14;;;;;;;11.23;7.83;;;-1.40;99.90;;;;;;5013421;28;20646;-68
2022/12/11 06:37:40;;;;;;;16.13;6.73;;;-1.50;99.90;;;;;;5027462;28;20638;-69
2022/12/11 06:40:08;;;;;;;13.87;6.67;;;-1.50;99.90;;;;;;5048720;28;20409;-69
2022/12/11 06:42:34;;;;;;;14.50;7.10;;;-1.50;99.90;;;;;;5035081;28;20175;-69
2022/12/11 06:45:00;;;;;;;8.60;6.67;;;-1.60;99.90;;;;;;5054777;28;20478;-69
2022/12/11 06:47:26;;;;;;;11.90;7.20;;;-1.60;99.90;;;;;;5050161;28;20932;-69
2022/12/11 06:49:52;;;;;;;10.47;7.83;;;-1.60;99.90;;;;;;5038145;28;20174;-69
2022/12/11 06:52:19;;;;;;;10.17;7.03;;;-1.60;99.90;;;;;;5049114;28;20468;-69
2022/12/11 06:54:44;;;;;;;7.97;6.50;;;-1.70;99.90;;;;;;5047124;28;20410;-69
2022/12/11 06:57:10;;;;;;;11.37;6.23;;;-1.70;99.90;;;;;;5038398;28;20445;-69
2022/12/11 06:59:36;;;;;;;10.70;7.10;;;-1.70;99.90;;;;;;5028230;28;20189;-69
2022/12/11 07:02:02;;;;;;;9.93;5.50;;;-1.70;99.90;;;;;;5045013;28;20666;-69
2022/12/11 07:04:29;;;;;;;11.20;5.63;;;-1.70;99.90;;;;;;5035841;28;20168;-69
2022/12/11 07:06:56;;;;;;;11.73;6.50;;;-1.70;99.90;;;;;;5033281;28;20452;-69
2022/12/11 07:09:22;;;;;;;6.73;4.60;;;-1.70;99.90;;;;;;5035137;28;20422;-69
2022/12/11 07:11:51;;;;;;;10.83;5.80;;;-1.90;99.90;;;;;;5034315;28;20468;-69
2022/12/11 07:14:16;;;;;;;12.90;7.10;;;-1.80;99.90;;;;;;5034531;28;20441;-69
2022/12/11 07:16:42;;;;;;;10.47;5.60;;;-1.90;99.90;;;;;;5037135;28;20923;-69
2022/12/11 07:19:08;;;;;;;10.63;7.60;;;-1.90;99.90;;;;;;5016938;28;20290;-69
2022/12/11 07:21:34;;;;;;;14.30;5.20;;;-1.80;99.90;;;;;;5004864;28;20223;-69
2022/12/11 07:23:59;;;;;;;8.33;5.00;;;-1.90;99.90;;;;;;5033711;28;20168;-69
2022/12/11 07:26:25;;;;;;;9.80;5.30;;;-1.90;99.90;;;;;;5042492;28;20951;-69
2022/12/11 07:28:50;;;;;;;9.33;6.03;;;-1.90;99.90;;;;;;5021189;28;20174;-69
2022/12/11 07:31:23;;;;;;;14.40;8.17;;;-1.90;99.90;;;;;;5042319;28;20182;-69
2022/12/11 07:33:58;;;;;;;7.97;4.63;;;-1.90;99.90;;;;;;5038523;28;20183;-69
2022/12/11 07:36:24;;;;;;;10.90;4.90;;;-1.90;99.90;;;;;;5007613;28;20440;-69
2022/12/11 07:38:50;;;;;;;10.53;5.63;;;-1.90;99.90;;;;;;5028809;28;20449;-68
2022/12/11 07:41:16;;;;;;;14.17;6.27;;;-1.90;99.90;;;;;;5047593;28;20976;-69
2022/12/11 07:43:43;;;;;;;5.23;4.17;;;-1.90;99.90;;;;;;5043570;28;20492;-69
2022/12/11 07:46:13;;;;;;;8.63;5.23;;;-2.00;99.90;;;;;;5048192;28;20582;-69
2022/12/11 07:48:41;;;;;;;6.83;4.87;;;-2.00;99.90;;;;;;5032752;28;20433;-69
2022/12/11 07:51:15;;;;;;;10.40;5.90;;;-1.90;99.90;;;;;;5013390;28;20414;-69
2022/12/11 07:53:43;;;;;;;9.33;6.03;;;-1.80;99.90;;;;;;5034126;28;20414;-68
2022/12/11 07:56:08;;;;;;;6.77;5.80;;;-1.90;99.90;;;;;;5033862;28;20493;-70
2022/12/11 07:58:34;;;;;;;8.27;6.20;;;-2.00;99.90;;;;;;5039747;28;20454;-68
2022/12/11 08:01:00;;;;;;;5.73;3.60;;;-2.00;99.90;;;;;;5050866;28;20657;-68
2022/12/11 08:03:26;;;;;;;6.43;4.07;;;-2.00;99.90;;;;;;5031513;28;20412;-68
2022/12/11 08:05:52;;;;;;;10.40;5.87;;;-2.00;99.90;;;;;;5033675;28;20195;-68
2022/12/11 08:08:18;;;;;;;6.53;5.40;;;-1.90;99.90;;;;;;5042286;28;20175;-69
2022/12/11 08:10:44;;;;;;;10.80;5.93;;;-2.00;99.90;;;;;;5043210;28;20494;-69
2022/12/11 08:13:10;;;;;;;10.07;5.83;;;-1.90;99.90;;;;;;5046038;28;20761;-69
2022/12/11 08:15:37;;;;;;;7.50;5.20;;;-1.90;99.90;;;;;;5038473;28;20777;-68
2022/12/11 08:18:04;;;;;;;11.20;6.67;;;-1.80;99.90;;;;;;5037311;28;20446;-69
2022/12/11 08:20:29;;;;;;;5.60;3.97;;;-1.90;99.90;;;;;;5033596;28;20856;-69
2022/12/11 08:22:55;;;;;;;6.33;4.90;;;-2.00;99.90;;;;;;5015113;28;20418;-69
2022/12/11 08:25:22;;;;;;;7.50;5.23;;;-1.90;99.90;;;;;;5038275;28;20543;-69
2022/12/11 08:27:48;;;;;;;5.80;4.40;;;-1.80;99.90;;;;;;5009756;28;20584;-69
2022/12/11 08:30:13;;;;;;;9.10;5.30;;;-1.90;99.90;;;;;;5048544;28;20501;-69
2022/12/11 08:32:40;;;;;;;7.27;5.03;;;-1.90;99.90;;;;;;5042787;28;20189;-69
2022/12/11 08:35:06;;;;;;;9.90;5.97;;;-1.90;99.90;;;;;;5039696;28;20175;-69
2022/12/11 08:37:33;;;;;;;6.17;4.23;;;-1.80;99.90;;;;;;5028260;28;20430;-68
2022/12/11 08:39:59;;;;;;;8.40;4.70;;;-1.80;99.90;;;;;;5032784;28;20430;-69
2022/12/11 08:42:24;;;;;;;8.00;5.57;;;-1.70;99.90;;;;;;5040535;28;20528;-69
2022/12/11 08:44:50;;;;;;;7.87;5.90;;;-1.70;99.90;;;;;;5025529;28;20270;-69
2022/12/11 08:47:19;;;;;;;8.67;5.23;;;-1.60;99.90;;;;;;5019364;28;20198;-69
2022/12/11 08:49:45;;;;;;;10.13;6.30;;;-1.70;99.90;;;;;;5037891;28;20418;-70
2022/12/11 08:52:10;;;;;;;13.77;6.57;;;-1.60;99.90;;;;;;5018672;28;20410;-69
2022/12/11 08:54:37;;;;;;;8.90;5.97;;;-1.70;99.90;;;;;;5057742;22;20661;-70
2022/12/11 08:57:03;;;;;;;9.93;5.50;;;-1.60;99.90;;;;;;5031593;28;20187;-69
2022/12/11 08:59:29;;;;;;;11.30;5.97;;;-1.60;99.90;;;;;;5031356;28;20539;-69
2022/12/11 09:01:54;;;;;;;6.67;3.90;;;-1.60;99.90;;;;;;5031462;28;20411;-68
2022/12/11 09:04:21;;;;;;;9.63;6.93;;;-1.70;99.90;;;;;;5031710;28;20558;-70
2022/12/11 09:06:47;;;;;;;5.83;4.87;;;-1.60;99.90;;;;;;5031109;28;20406;-70
2022/12/11 09:09:13;;;;;;;12.17;4.70;;;-1.60;99.90;;;;;;5031407;28;20492;-69
2022/12/11 09:11:39;;;;;;;8.50;5.50;;;-1.60;99.90;;;;;;5031213;28;20413;-68
2022/12/11 09:14:05;;;;;;;16.00;7.53;;;-1.50;99.90;;;;;;5036417;28;20438;-69
2022/12/11 09:16:31;;;;;;;5.53;4.47;;;-1.60;99.90;;;;;;5031475;28;20175;-69
2022/12/11 09:18:58;;;;;;;8.03;5.47;;;-1.60;99.90;;;;;;5026982;28;20549;-71
2022/12/11 09:21:26;;;;;;;8.20;5.27;;;-1.50;99.90;;;;;;5031556;28;20777;-69
2022/12/11 09:23:54;;;;;;;7.70;4.87;;;-1.50;99.90;;;;;;5010981;28;20811;-67
2022/12/11 09:26:20;;;;;;;9.70;4.33;;;-1.50;99.90;;;;;;5031209;28;20855;-67
2022/12/11 09:28:46;;;;;;;10.70;5.40;;;-1.40;99.90;;;;;;5030967;28;20406;-70
2022/12/11 09:31:18;;;;;;;8.47;5.10;;;-1.50;99.90;;;;;;5026101;28;20466;-69
2022/12/11 09:33:44;;;;;;;6.00;4.50;;;-1.50;99.90;;;;;;5030733;28;20945;-69
2022/12/11 09:36:11;;;;;;;8.23;5.03;;;-1.40;99.90;;;;;;5030910;28;20410;-69
2022/12/11 09:38:37;;;;;;;7.43;6.10;;;-1.40;99.90;;;;;;5030834;28;20450;-70
2022/12/11 09:41:21;;;;;;;9.50;6.10;;;-1.40;99.90;;;;;;5031389;28;20897;-69
2022/12/11 09:44:18;;;;;;;6.70;4.70;;;-1.30;99.90;;;;;;5027101;28;20427;-70
2022/12/11 09:46:44;;;;;;;10.60;4.73;;;-1.40;99.90;;;;;;5029003;28;20818;-71
2022/12/11 09:49:25;;;;;;;9.27;5.50;;;-1.50;99.90;;;;;;5031438;28;20908;-71
2022/12/11 09:52:10;;;;;;;6.20;4.50;;;-1.50;99.90;;;;;;5027506;28;20403;-69
2022/12/11 09:54:37;;;;;;;6.83;5.63;;;-1.50;99.90;;;;;;5025752;28;20519;-68
2022/12/11 09:57:09;;;;;;;6.97;5.23;;;-1.40;99.90;;;;;;5015660;28;20442;-69
2022/12/11 09:59:57;;;;;;;8.37;5.37;;;-1.40;99.90;;;;;;5031129;28;20457;-69
2022/12/11 10:02:43;;;;;;;7.90;5.00;;;-1.30;99.90;;;;;;5031417;28;20936;-69
2022/12/11 10:05:24;;;;;;;11.33;6.27;;;-1.50;99.90;;;;;;5034866;28;20430;-69
2022/12/11 10:08:04;;;;;;;7.40;5.30;;;-1.40;99.90;;;;;;5035378;28;20425;-69
2022/12/11 10:10:42;;;;;;;5.33;4.00;;;-1.40;99.90;;;;;;5031446;28;20409;-69
2022/12/11 10:13:20;;;;;;;9.40;5.90;;;-1.30;99.90;;;;;;5026481;28;20402;-70
2022/12/11 10:16:17;;;;;;;6.63;5.23;;;-1.30;99.90;;;;;;5034663;28;20409;-69
2022/12/11 10:18:43;;;;;;;6.27;5.37;;;-1.40;99.90;;;;;;5034901;28;20453;-69
2022/12/11 10:21:11;;;;;;;7.30;5.67;;;-1.30;99.90;;;;;;5020461;28;20826;-70
2022/12/11 10:23:53;;;;;;;9.60;5.43;;;-1.40;99.90;;;;;;5017602;28;20470;-70
2022/12/11 10:26:20;;;;;;;10.40;6.80;;;-1.40;99.90;;;;;;5034855;28;20394;-70
2022/12/11 10:28:47;;;;;;;11.30;5.83;;;-1.40;99.90;;;;;;5034712;28;20417;-70
2022/12/11 10:31:15;;;;;;;8.00;5.67;;;-1.40;99.90;;;;;;5034855;28;20407;-70
2022/12/11 10:34:01;;;;;;;9.67;5.93;;;-1.30;99.90;;;;;;5034827;28;20426;-70
2022/12/11 10:36:30;;;;;;;7.87;5.67;;;-1.30;99.90;;;;;;5021238;28;20956;-69
2022/12/11 10:38:56;;;;;;;9.80;5.93;;;-1.20;99.90;;;;;;5030760;28;20456;-69
2022/12/11 10:41:35;;;;;;;12.93;6.00;;;-1.20;99.90;;;;;;5029962;28;20412;-69
2022/12/11 10:44:16;;;;;;;7.90;5.83;;;-1.30;99.90;;;;;;5033339;28;20526;-68
2022/12/11 10:46:42;;;;;;;6.70;4.00;;;-1.30;99.90;;;;;;5021709;28;20849;-68
2022/12/11 10:49:20;;;;;;;7.83;5.97;;;-1.10;99.90;;;;;;5016482;28;20450;-68
2022/12/11 10:51:46;;;;;;;9.83;6.40;;;-1.10;99.90;;;;;;5024125;28;20430;-68
2022/12/11 10:54:32;;;;;;;9.93;5.60;;;-1.00;99.90;;;;;;5026679;28;20493;-68
2022/12/11 10:56:59;;;;;;;11.30;6.53;;;-1.00;99.90;;;;;;5025602;28;20168;-68
2022/12/11 10:59:48;;;;;;;7.50;5.03;;;-1.10;99.90;;;;;;5034056;28;20836;-68
2022/12/11 11:02:40;;;;;;;9.93;5.50;;;-1.10;99.90;;;;;;5034209;28;20403;-68
2022/12/11 11:05:26;;;;;;;7.33;5.30;;;-1.20;99.90;;;;;;5022154;28;20442;-68
2022/12/11 11:08:12;;;;;;;13.90;6.70;;;-1.20;99.90;;;;;;5004982;28;20418;-67
2022/12/11 11:10:56;;;;;;;8.30;4.60;;;-1.00;99.90;;;;;;5033647;28;20776;-67
2022/12/11 11:13:24;;;;;;;10.27;5.10;;;-1.00;99.90;;;;;;5026164;28;20406;-67
2022/12/11 11:16:10;;;;;;;7.10;5.60;;;-1.20;99.90;;;;;;5031203;28;20429;-66
2022/12/11 11:18:39;;;;;;;13.00;7.20;;;-1.00;99.90;;;;;;5016481;28;20873;-66
2022/12/11 11:21:05;;;;;;;11.50;7.23;;;-0.90;99.90;;;;;;5033708;28;20924;-67
2022/12/11 11:23:33;;;;;;;14.33;8.00;;;-0.80;99.90;;;;;;5033686;28;20782;-67
2022/12/11 11:26:06;;;;;;;10.77;7.40;;;-0.80;99.90;;;;;;5030341;28;20411;-69
2022/12/11 11:29:00;;;;;;;12.00;6.53;;;-0.70;99.90;;;;;;5033854;28;20416;-69
2022/12/11 11:31:33;;;;;;;8.17;5.60;;;-0.80;99.90;;;;;;5018489;28;20423;-66
2022/12/11 11:34:06;;;;;;;10.67;6.83;;;-0.80;99.90;;;;;;5014723;28;20493;-67
2022/12/11 11:36:34;;;;;;;12.50;6.37;;;-0.90;99.90;;;;;;5021985;28;20395;-68
2022/12/11 11:39:16;;;;;;;8.63;6.43;;;-0.80;99.90;;;;;;5033137;28;20928;-68
2022/12/11 11:41:51;;;;;;;13.17;6.20;;;-0.80;99.90;;;;;;5020426;28;20398;-71
2022/12/11 11:44:32;;;;;;;8.33;5.77;;;-0.80;99.90;;;;;;5032971;28;20418;-70
2022/12/11 11:47:30;;;;;;;9.27;6.00;;;-0.70;99.90;;;;;;5023457;28;20402;-67
2022/12/11 11:50:13;;;;;;;11.70;6.60;;;-0.60;99.90;;;;;;5031990;28;20950;-67
2022/12/11 11:53:16;;;;;;;8.60;7.07;;;-0.60;99.90;;;;;;5033015;28;20406;-67
2022/12/11 11:55:47;;;;;;;10.83;6.73;;;-0.70;99.90;;;;;;4998471;28;20804;-69
2022/12/11 11:58:18;;;;;;;11.87;7.07;;;-0.70;99.90;;;;;;5032425;28;20484;-69
2022/12/11 12:00:44;;;;;;;12.53;7.40;;;-0.50;99.90;;;;;;5032674;28;20410;-69
2022/12/11 12:03:15;;;;;;;11.73;6.90;;;-0.50;99.90;;;;;;5032869;28;20410;-68
2022/12/11 12:06:14;;;;;;;12.30;7.73;;;-0.50;99.90;;;;;;5032351;28;20470;-69
2022/12/11 12:08:52;;;;;;;10.37;6.63;;;-0.50;99.90;;;;;;5027874;28;20434;-69
2022/12/11 12:11:34;;;;;;;8.20;4.47;;;-0.50;99.90;;;;;;5032419;28;20908;-69
2022/12/11 12:14:12;;;;;;;8.40;5.50;;;-0.50;99.90;;;;;;5032438;28;20517;-69
2022/12/11 12:17:03;;;;;;;11.67;7.13;;;-0.60;99.90;;;;;;5032611;28;20463;-69
2022/12/11 12:19:49;;;;;;;14.30;7.43;;;-0.40;99.90;;;;;;5019458;28;20812;-69
2022/12/11 12:22:36;;;;;;;10.63;6.80;;;-0.40;99.90;;;;;;5031649;28;20909;-70
2022/12/11 12:25:17;;;;;;;10.37;7.47;;;-0.40;99.90;;;;;;5030399;28;20429;-68
2022/12/11 12:27:58;;;;;;;12.27;7.50;;;-0.40;99.90;;;;;;5028666;28;20429;-69
2022/12/11 12:30:25;;;;;;;14.07;7.10;;;-0.50;99.90;;;;;;5013082;28;20982;-68
2022/12/11 12:32:54;;;;;;;10.53;5.93;;;-0.50;99.90;;;;;;5029009;28;20931;-69
2022/12/11 12:35:28;;;;;;;9.83;7.07;;;-0.40;99.90;;;;;;5032329;28;20805;-69
2022/12/11 12:38:15;;;;;;;10.90;7.03;;;-0.30;99.90;;;;;;5014331;28;20449;-69
2022/12/11 12:40:54;;;;;;;9.03;7.10;;;-0.30;99.90;;;;;;5032317;28;20552;-69
2022/12/11 12:43:35;;;;;;;9.83;6.93;;;-0.40;99.90;;;;;;5032071;28;20406;-68
2022/12/11 12:46:21;;;;;;;12.13;6.70;;;-0.30;99.90;;;;;;5032866;28;20806;-68
2022/12/11 12:48:48;;;;;;;10.47;6.67;;;-0.20;99.90;;;;;;4991374;28;20490;-70
2022/12/11 12:51:15;;;;;;;10.80;7.03;;;-0.20;99.90;;;;;;5032344;28;20925;-69
2022/12/11 12:53:46;;;;;;;11.67;6.77;;;-0.10;99.90;;;;;;5032427;28;20446;-69
2022/12/11 12:56:13;;;;;;;19.13;7.40;;;-0.10;99.90;;;;;;5032290;28;20432;-69
2022/12/11 12:58:42;;;;;;;14.63;8.00;;;-0.20;99.90;;;;;;5032144;28;20466;-69
2022/12/11 13:01:27;;;;;;;11.07;7.63;;;-0.20;99.90;;;;;;5032311;28;20850;-69
2022/12/11 13:03:55;;;;;;;13.00;7.57;;;-0.20;99.90;;;;;;4997781;28;21022;-69
2022/12/11 13:06:51;;;;;;;12.47;6.50;;;-0.30;99.90;;;;;;5022849;28;20927;-69